Aeroporto :
LOGIN :

Iscrizione | Disclaimer

   EN    FR    IT 

 










Sommario :    VFR   VFR Marginale   IFR   IFR Intensivo   IFR Molto Intensivo
Visibilità : 
Base nubi : 
>= 8 km
>= 3000ft
5 / 8 km
1000 / 3000 ft
1500m / 5 km
500 / 1000 ft
800 / 1500m
200 / 500 ft
< 800m
< 200 ft
Simboli :   Temporali  Nebbia  Neve Forte  Precipitazioni Forti  Vento > 20 kt
SIGMETs :   Varie  Temporali  Ghiacco  Turbolenza  Onda orograficha  Ceneri Vulcaniche






- Altitudine del aeroporto : 17 ft
- Codice IATA : MPL


LFMT - Montpellier Méditerranée

ULTIMO METAR :
  • 190130Z AUTO 03012KT CAVOK 06/M00 Q1022

METARs OBSOLETI :
  • 190100Z AUTO 02012KT CAVOK 06/M00 Q1023 BECMG 36015G25KT
  • 190030Z AUTO 02013KT CAVOK 06/00 Q1022 BECMG 36015G25KT
  • 190000Z AUTO 03010KT CAVOK 06/00 Q1022 NOSIG
  • 182330Z AUTO 02008KT CAVOK 06/00 Q1022 NOSIG
  • 182300Z AUTO 02009KT CAVOK 05/00 Q1022 NOSIG

TAF TAF LFMT
Valido dal 18 a 21 ore il 19 a 21 ore UTC


182000Z 1821/1921 36005KT CAVOK
BECMG 1902/1904 36015G25KT
TEMPO 1904/1915 02020G35KT
ATIS : +33 4 67 13 11 70



MetMap, La meteo Aeronautica in un colpo d'occhio ! - Copyright ORBIFLY Dicembre 2007 - Disclaimer

ORBIFLY MET'MAP TEAM :

Programmazione e sviluppo : Alexandra Zaïnal
Concezione : Baudouin d'Aumeries
Aiuto per la programmazione : Marc-Olivier Méhu
Supporto tecnico e logistico : Manuel Goepfert
Aiuto per la traduzione : Arnaldo La Scala

Contatto : metmap@orbifly.com




FONTI E CREDITI :

   NOAA